sensor_id;sensor_type;location;lat;lon;timestamp;pressure;altitude;pressure_sealevel;temperature;humidity
61554;BME280;47425;51.976;5.326;2023-11-22T00:01:47;102655.22;;;7.89;64.10
61554;BME280;47425;51.976;5.326;2023-11-22T00:04:17;102656.50;;;7.66;64.21
61554;BME280;47425;51.976;5.326;2023-11-22T00:06:43;102638.28;;;7.67;65.16
61554;BME280;47425;51.976;5.326;2023-11-22T00:09:10;102635.94;;;7.83;65.34
61554;BME280;47425;51.976;5.326;2023-11-22T00:11:36;102634.28;;;7.86;64.78
61554;BME280;47425;51.976;5.326;2023-11-22T00:14:03;102640.91;;;7.69;64.32
61554;BME280;47425;51.976;5.326;2023-11-22T00:16:28;102634.59;;;7.58;64.98
61554;BME280;47425;51.976;5.326;2023-11-22T00:18:56;102641.66;;;7.63;65.32
61554;BME280;47425;51.976;5.326;2023-11-22T00:21:24;102652.25;;;7.71;64.77
61554;BME280;47425;51.976;5.326;2023-11-22T00:23:51;102654.75;;;7.66;64.76
61554;BME280;47425;51.976;5.326;2023-11-22T00:26:17;102648.78;;;7.72;65.48
61554;BME280;47425;51.976;5.326;2023-11-22T00:28:54;102656.47;;;8.09;65.75
61554;BME280;47425;51.976;5.326;2023-11-22T00:31:20;102657.94;;;7.94;64.16
61554;BME280;47425;51.976;5.326;2023-11-22T00:33:47;102653.88;;;7.66;64.45
61554;BME280;47425;51.976;5.326;2023-11-22T00:36:13;102660.47;;;7.48;64.91
61554;BME280;47425;51.976;5.326;2023-11-22T00:38:43;102656.84;;;7.42;65.02
61554;BME280;47425;51.976;5.326;2023-11-22T00:41:10;102655.91;;;7.38;65.25
61554;BME280;47425;51.976;5.326;2023-11-22T00:43:37;102653.19;;;7.33;65.33
61554;BME280;47425;51.976;5.326;2023-11-22T00:46:03;102651.53;;;7.37;66.05
61554;BME280;47425;51.976;5.326;2023-11-22T00:48:30;102663.09;;;7.50;65.38
61554;BME280;47425;51.976;5.326;2023-11-22T00:50:56;102651.81;;;7.49;65.28
61554;BME280;47425;51.976;5.326;2023-11-22T00:53:24;102664.13;;;7.56;65.20
61554;BME280;47425;51.976;5.326;2023-11-22T00:55:52;102656.28;;;7.55;65.62
61554;BME280;47425;51.976;5.326;2023-11-22T00:58:18;102662.88;;;7.80;66.17
61554;BME280;47425;51.976;5.326;2023-11-22T01:00:45;102661.41;;;7.95;65.38
61554;BME280;47425;51.976;5.326;2023-11-22T01:03:11;102672.13;;;8.09;64.96
61554;BME280;47425;51.976;5.326;2023-11-22T01:05:39;102680.81;;;8.07;64.54
61554;BME280;47425;51.976;5.326;2023-11-22T01:08:07;102680.56;;;7.95;64.00
61554;BME280;47425;51.976;5.326;2023-11-22T01:10:34;102677.88;;;7.92;64.29
61554;BME280;47425;51.976;5.326;2023-11-22T01:13:02;102683.84;;;7.86;64.29
61554;BME280;47425;51.976;5.326;2023-11-22T01:15:29;102693.66;;;7.97;64.59
61554;BME280;47425;51.976;5.326;2023-11-22T01:17:57;102708.59;;;8.05;64.32
61554;BME280;47425;51.976;5.326;2023-11-22T01:20:23;102716.22;;;7.96;63.99
61554;BME280;47425;51.976;5.326;2023-11-22T01:22:50;102715.41;;;7.99;64.20
61554;BME280;47425;51.976;5.326;2023-11-22T01:25:16;102716.31;;;7.99;63.61
61554;BME280;47425;51.976;5.326;2023-11-22T01:27:42;102733.47;;;7.89;63.38
61554;BME280;47425;51.976;5.326;2023-11-22T01:30:11;102731.78;;;7.92;64.21
61554;BME280;47425;51.976;5.326;2023-11-22T01:32:38;102723.63;;;8.19;65.05
61554;BME280;47425;51.976;5.326;2023-11-22T01:35:05;102723.81;;;8.28;63.67
61554;BME280;47425;51.976;5.326;2023-11-22T01:37:31;102736.63;;;8.14;63.10
61554;BME280;47425;51.976;5.326;2023-11-22T01:39:58;102745.00;;;7.99;63.07
61554;BME280;47425;51.976;5.326;2023-11-22T01:42:26;102745.63;;;7.87;63.24
61554;BME280;47425;51.976;5.326;2023-11-22T01:44:52;102741.22;;;7.85;63.27
61554;BME280;47425;51.976;5.326;2023-11-22T01:47:20;102742.88;;;7.81;63.14
61554;BME280;47425;51.976;5.326;2023-11-22T01:49:47;102745.50;;;7.83;63.43
61554;BME280;47425;51.976;5.326;2023-11-22T01:52:14;102730.63;;;7.77;63.05
61554;BME280;47425;51.976;5.326;2023-11-22T01:54:42;102732.34;;;7.77;62.84
61554;BME280;47425;51.976;5.326;2023-11-22T01:57:09;102721.91;;;7.77;63.09
61554;BME280;47425;51.976;5.326;2023-11-22T01:59:36;102712.34;;;7.77;62.62
61554;BME280;47425;51.976;5.326;2023-11-22T02:02:03;102721.00;;;7.75;62.69
61554;BME280;47425;51.976;5.326;2023-11-22T02:04:31;102725.09;;;7.63;62.32
61554;BME280;47425;51.976;5.326;2023-11-22T02:06:59;102724.84;;;7.51;62.27
61554;BME280;47425;51.976;5.326;2023-11-22T02:09:27;102719.44;;;7.43;62.76
61554;BME280;47425;51.976;5.326;2023-11-22T02:11:53;102728.94;;;7.41;62.79
61554;BME280;47425;51.976;5.326;2023-11-22T02:14:19;102736.59;;;7.33;62.98
61554;BME280;47425;51.976;5.326;2023-11-22T02:16:46;102740.00;;;7.31;62.79
61554;BME280;47425;51.976;5.326;2023-11-22T02:19:14;102747.72;;;7.26;62.92
61554;BME280;47425;51.976;5.326;2023-11-22T02:21:43;102737.25;;;7.25;63.09
61554;BME280;47425;51.976;5.326;2023-11-22T02:24:11;102740.81;;;7.28;63.24
61554;BME280;47425;51.976;5.326;2023-11-22T02:26:38;102740.91;;;7.33;63.32
61554;BME280;47425;51.976;5.326;2023-11-22T02:29:09;102745.28;;;7.34;62.96
61554;BME280;47425;51.976;5.326;2023-11-22T02:31:36;102741.06;;;7.39;63.08
61554;BME280;47425;51.976;5.326;2023-11-22T02:34:03;102754.19;;;7.44;63.07
61554;BME280;47425;51.976;5.326;2023-11-22T02:36:30;102750.03;;;7.52;63.11
61554;BME280;47425;51.976;5.326;2023-11-22T02:38:56;102734.53;;;7.58;62.87
61554;BME280;47425;51.976;5.326;2023-11-22T02:41:24;102742.44;;;7.61;62.57
61554;BME280;47425;51.976;5.326;2023-11-22T02:43:56;102738.16;;;7.63;62.40
61554;BME280;47425;51.976;5.326;2023-11-22T02:46:22;102737.34;;;7.66;62.23
61554;BME280;47425;51.976;5.326;2023-11-22T02:48:49;102729.50;;;7.66;62.25
61554;BME280;47425;51.976;5.326;2023-11-22T02:51:16;102728.59;;;7.64;62.10
61554;BME280;47425;51.976;5.326;2023-11-22T02:53:43;102720.69;;;7.61;61.79
61554;BME280;47425;51.976;5.326;2023-11-22T02:56:12;102731.09;;;7.59;61.86
61554;BME280;47425;51.976;5.326;2023-11-22T02:58:40;102721.75;;;7.69;62.89
61554;BME280;47425;51.976;5.326;2023-11-22T03:01:06;102719.41;;;7.83;62.33
61554;BME280;47425;51.976;5.326;2023-11-22T03:03:33;102720.50;;;7.91;62.23
61554;BME280;47425;51.976;5.326;2023-11-22T03:06:00;102713.44;;;7.87;61.89
61554;BME280;47425;51.976;5.326;2023-11-22T03:08:26;102729.25;;;7.96;62.57
61554;BME280;47425;51.976;5.326;2023-11-22T03:10:53;102718.09;;;8.02;61.42
61554;BME280;47425;51.976;5.326;2023-11-22T03:13:19;102717.94;;;7.94;61.51
61554;BME280;47425;51.976;5.326;2023-11-22T03:15:47;102729.91;;;7.84;60.96
61554;BME280;47425;51.976;5.326;2023-11-22T03:18:13;102727.94;;;7.74;61.07
61554;BME280;47425;51.976;5.326;2023-11-22T03:20:41;102741.66;;;7.65;61.17
61554;BME280;47425;51.976;5.326;2023-11-22T03:23:09;102742.31;;;7.55;60.92
61554;BME280;47425;51.976;5.326;2023-11-22T03:25:36;102740.22;;;7.40;61.02
61554;BME280;47425;51.976;5.326;2023-11-22T03:28:03;102742.69;;;7.34;61.50
61554;BME280;47425;51.976;5.326;2023-11-22T03:30:29;102754.72;;;7.29;61.26
61554;BME280;47425;51.976;5.326;2023-11-22T03:32:58;102746.84;;;7.26;61.78
61554;BME280;47425;51.976;5.326;2023-11-22T03:35:25;102755.44;;;7.21;61.69
61554;BME280;47425;51.976;5.326;2023-11-22T03:37:52;102760.47;;;7.15;61.74
61554;BME280;47425;51.976;5.326;2023-11-22T03:40:18;102769.59;;;6.98;61.93
61554;BME280;47425;51.976;5.326;2023-11-22T03:42:45;102781.00;;;6.69;61.82
61554;BME280;47425;51.976;5.326;2023-11-22T03:45:13;102782.94;;;6.45;62.43
61554;BME280;47425;51.976;5.326;2023-11-22T03:47:41;102787.78;;;6.32;62.76
61554;BME280;47425;51.976;5.326;2023-11-22T03:50:09;102798.88;;;6.25;63.06
61554;BME280;47425;51.976;5.326;2023-11-22T03:52:35;102803.16;;;6.23;63.24
61554;BME280;47425;51.976;5.326;2023-11-22T03:55:02;102808.47;;;6.28;63.38
61554;BME280;47425;51.976;5.326;2023-11-22T03:57:30;102806.72;;;6.27;62.99
61554;BME280;47425;51.976;5.326;2023-11-22T03:59:58;102817.31;;;6.33;63.11
61554;BME280;47425;51.976;5.326;2023-11-22T04:02:24;102821.81;;;6.38;63.31
61554;BME280;47425;51.976;5.326;2023-11-22T04:04:50;102825.81;;;6.58;63.16
61554;BME280;47425;51.976;5.326;2023-11-22T04:07:18;102824.16;;;6.60;62.72
61554;BME280;47425;51.976;5.326;2023-11-22T04:09:45;102826.72;;;6.58;62.32
61554;BME280;47425;51.976;5.326;2023-11-22T04:12:12;102830.72;;;6.47;62.27
61554;BME280;47425;51.976;5.326;2023-11-22T04:14:39;102828.56;;;6.32;62.62
61554;BME280;47425;51.976;5.326;2023-11-22T04:17:05;102836.91;;;6.21;63.30
61554;BME280;47425;51.976;5.326;2023-11-22T04:19:32;102830.16;;;6.28;63.63
61554;BME280;47425;51.976;5.326;2023-11-22T04:21:58;102828.03;;;6.44;63.85
61554;BME280;47425;51.976;5.326;2023-11-22T04:24:27;102836.19;;;6.56;63.48
61554;BME280;47425;51.976;5.326;2023-11-22T04:26:54;102836.75;;;6.76;63.90
61554;BME280;47425;51.976;5.326;2023-11-22T04:29:20;102848.66;;;6.98;63.49
61554;BME280;47425;51.976;5.326;2023-11-22T04:31:47;102845.38;;;7.07;62.60
61554;BME280;47425;51.976;5.326;2023-11-22T04:34:13;102851.38;;;7.04;62.10
61554;BME280;47425;51.976;5.326;2023-11-22T04:36:41;102841.13;;;6.77;62.16
61554;BME280;47425;51.976;5.326;2023-11-22T04:39:07;102846.66;;;6.59;62.83
61554;BME280;47425;51.976;5.326;2023-11-22T04:41:36;102849.34;;;6.61;63.50
61554;BME280;47425;51.976;5.326;2023-11-22T04:44:03;102859.31;;;6.76;63.54
61554;BME280;47425;51.976;5.326;2023-11-22T04:46:29;102858.50;;;6.78;63.06
61554;BME280;47425;51.976;5.326;2023-11-22T04:48:58;102871.91;;;6.62;62.68
61554;BME280;47425;51.976;5.326;2023-11-22T04:51:24;102863.84;;;6.52;63.53
61554;BME280;47425;51.976;5.326;2023-11-22T04:53:51;102855.75;;;6.74;64.65
61554;BME280;47425;51.976;5.326;2023-11-22T04:56:18;102848.25;;;6.84;63.72
61554;BME280;47425;51.976;5.326;2023-11-22T04:58:45;102847.13;;;6.75;63.31
61554;BME280;47425;51.976;5.326;2023-11-22T05:01:12;102840.84;;;6.68;63.44
61554;BME280;47425;51.976;5.326;2023-11-22T05:03:39;102843.72;;;6.77;63.88
61554;BME280;47425;51.976;5.326;2023-11-22T05:06:06;102840.72;;;6.95;64.60
61554;BME280;47425;51.976;5.326;2023-11-22T05:08:32;102828.38;;;7.21;64.23
61554;BME280;47425;51.976;5.326;2023-11-22T05:10:59;102836.44;;;7.31;63.56
61554;BME280;47425;51.976;5.326;2023-11-22T05:13:26;102830.72;;;7.46;63.40
61554;BME280;47425;51.976;5.326;2023-11-22T05:15:53;102842.22;;;7.54;63.57
61554;BME280;47425;51.976;5.326;2023-11-22T05:18:20;102837.06;;;7.57;63.05
61554;BME280;47425;51.976;5.326;2023-11-22T05:20:46;102845.81;;;7.59;62.67
61554;BME280;47425;51.976;5.326;2023-11-22T05:23:13;102844.00;;;7.55;62.38
61554;BME280;47425;51.976;5.326;2023-11-22T05:25:41;102831.78;;;7.54;62.21
61554;BME280;47425;51.976;5.326;2023-11-22T05:28:07;102835.25;;;7.53;61.96
61554;BME280;47425;51.976;5.326;2023-11-22T05:30:33;102836.84;;;7.48;62.21
61554;BME280;47425;51.976;5.326;2023-11-22T05:33:01;102828.94;;;7.43;61.90
61554;BME280;47425;51.976;5.326;2023-11-22T05:35:28;102839.94;;;7.33;62.07
61554;BME280;47425;51.976;5.326;2023-11-22T05:37:54;102839.94;;;7.33;62.32
61554;BME280;47425;51.976;5.326;2023-11-22T05:40:23;102843.59;;;7.39;62.40
61554;BME280;47425;51.976;5.326;2023-11-22T05:42:50;102837.03;;;7.55;63.41
61554;BME280;47425;51.976;5.326;2023-11-22T05:45:17;102841.06;;;7.78;63.02
61554;BME280;47425;51.976;5.326;2023-11-22T05:47:43;102848.88;;;7.78;62.03
61554;BME280;47425;51.976;5.326;2023-11-22T05:50:11;102855.56;;;7.66;61.77
61554;BME280;47425;51.976;5.326;2023-11-22T05:52:39;102858.94;;;7.62;62.06
61554;BME280;47425;51.976;5.326;2023-11-22T05:55:05;102870.28;;;7.64;62.26
61554;BME280;47425;51.976;5.326;2023-11-22T05:57:33;102865.09;;;7.64;61.98
61554;BME280;47425;51.976;5.326;2023-11-22T06:00:00;102863.38;;;7.66;62.07
61554;BME280;47425;51.976;5.326;2023-11-22T06:02:26;102877.22;;;7.64;61.81
61554;BME280;47425;51.976;5.326;2023-11-22T06:04:54;102871.06;;;7.60;62.11
61554;BME280;47425;51.976;5.326;2023-11-22T06:07:21;102861.03;;;7.77;62.65
61554;BME280;47425;51.976;5.326;2023-11-22T06:09:48;102867.50;;;7.95;62.34
61554;BME280;47425;51.976;5.326;2023-11-22T06:12:14;102870.25;;;7.99;62.44
61554;BME280;47425;51.976;5.326;2023-11-22T06:14:41;102871.88;;;7.94;61.68
61554;BME280;47425;51.976;5.326;2023-11-22T06:17:08;102869.03;;;7.85;61.42
61554;BME280;47425;51.976;5.326;2023-11-22T06:19:37;102867.06;;;7.76;61.56
61554;BME280;47425;51.976;5.326;2023-11-22T06:22:06;102862.78;;;7.78;61.70
61554;BME280;47425;51.976;5.326;2023-11-22T06:24:34;102863.84;;;7.86;62.40
61554;BME280;47425;51.976;5.326;2023-11-22T06:27:01;102870.09;;;7.93;61.65
61554;BME280;47425;51.976;5.326;2023-11-22T06:29:29;102865.63;;;7.87;61.59
61554;BME280;47425;51.976;5.326;2023-11-22T06:31:55;102887.06;;;7.76;61.38
61554;BME280;47425;51.976;5.326;2023-11-22T06:34:21;102904.16;;;7.63;61.41
61554;BME280;47425;51.976;5.326;2023-11-22T06:36:48;102898.72;;;7.53;61.54
61554;BME280;47425;51.976;5.326;2023-11-22T06:39:14;102898.66;;;7.52;62.00
61554;BME280;47425;51.976;5.326;2023-11-22T06:41:45;102893.50;;;7.53;62.09
61554;BME280;47425;51.976;5.326;2023-11-22T06:44:12;102883.94;;;7.54;62.04
61554;BME280;47425;51.976;5.326;2023-11-22T06:46:39;102871.00;;;7.59;62.19
61554;BME280;47425;51.976;5.326;2023-11-22T06:49:05;102871.16;;;7.65;62.05
61554;BME280;47425;51.976;5.326;2023-11-22T06:51:32;102870.41;;;7.69;61.89
61554;BME280;47425;51.976;5.326;2023-11-22T06:53:59;102869.75;;;7.78;62.10
61554;BME280;47425;51.976;5.326;2023-11-22T06:56:26;102854.72;;;8.05;62.83
61554;BME280;47425;51.976;5.326;2023-11-22T06:58:54;102859.16;;;8.10;61.84
61554;BME280;47425;51.976;5.326;2023-11-22T07:01:22;102864.47;;;8.13;62.20
61554;BME280;47425;51.976;5.326;2023-11-22T07:03:50;102875.47;;;8.39;62.91
61554;BME280;47425;51.976;5.326;2023-11-22T07:06:17;102871.59;;;8.60;62.89
61554;BME280;47425;51.976;5.326;2023-11-22T07:08:45;102860.38;;;9.11;64.02
61554;BME280;47425;51.976;5.326;2023-11-22T07:11:12;102856.66;;;9.49;62.52
61554;BME280;47425;51.976;5.326;2023-11-22T07:13:38;102866.25;;;9.48;61.11
61554;BME280;47425;51.976;5.326;2023-11-22T07:16:07;102872.03;;;9.30;60.80
61554;BME280;47425;51.976;5.326;2023-11-22T07:18:33;102877.91;;;9.18;60.44
61554;BME280;47425;51.976;5.326;2023-11-22T07:21:00;102889.00;;;9.05;60.85
61554;BME280;47425;51.976;5.326;2023-11-22T07:23:26;102891.88;;;9.19;61.81
61554;BME280;47425;51.976;5.326;2023-11-22T07:25:54;102889.69;;;9.42;61.36
61554;BME280;47425;51.976;5.326;2023-11-22T07:28:20;102886.41;;;9.54;61.63
61554;BME280;47425;51.976;5.326;2023-11-22T07:30:48;102878.75;;;9.66;61.42
61554;BME280;47425;51.976;5.326;2023-11-22T07:33:16;102882.63;;;9.91;61.48
61554;BME280;47425;51.976;5.326;2023-11-22T07:35:42;102877.59;;;10.05;61.49
61554;BME280;47425;51.976;5.326;2023-11-22T07:38:09;102879.59;;;10.23;61.19
61554;BME280;47425;51.976;5.326;2023-11-22T07:40:36;102890.97;;;10.27;60.54
61554;BME280;47425;51.976;5.326;2023-11-22T07:43:03;102881.31;;;10.23;60.33
61554;BME280;47425;51.976;5.326;2023-11-22T07:45:30;102891.78;;;10.23;59.81
61554;BME280;47425;51.976;5.326;2023-11-22T07:47:56;102901.97;;;10.03;59.20
61554;BME280;47425;51.976;5.326;2023-11-22T07:50:25;102905.34;;;9.94;59.78
61554;BME280;47425;51.976;5.326;2023-11-22T07:52:52;102907.94;;;9.93;59.86
61554;BME280;47425;51.976;5.326;2023-11-22T07:55:19;102908.81;;;9.91;59.44
61554;BME280;47425;51.976;5.326;2023-11-22T07:57:47;102907.16;;;9.98;60.25
61554;BME280;47425;51.976;5.326;2023-11-22T08:00:14;102898.00;;;10.30;60.98
61554;BME280;47425;51.976;5.326;2023-11-22T08:02:44;102891.47;;;10.61;60.04
61554;BME280;47425;51.976;5.326;2023-11-22T08:05:10;102896.47;;;10.41;59.08
61554;BME280;47425;51.976;5.326;2023-11-22T08:07:39;102904.06;;;10.27;59.59
61554;BME280;47425;51.976;5.326;2023-11-22T08:10:07;102931.75;;;10.11;58.49
61554;BME280;47425;51.976;5.326;2023-11-22T08:12:41;102934.38;;;10.11;59.22
61554;BME280;47425;51.976;5.326;2023-11-22T08:15:08;102941.38;;;10.11;58.99
61554;BME280;47425;51.976;5.326;2023-11-22T08:17:37;102939.34;;;9.91;58.28
61554;BME280;47425;51.976;5.326;2023-11-22T08:20:04;102948.50;;;9.66;58.22
61554;BME280;47425;51.976;5.326;2023-11-22T08:22:32;102948.97;;;9.42;58.36
61554;BME280;47425;51.976;5.326;2023-11-22T08:25:02;102950.44;;;9.27;58.87
61554;BME280;47425;51.976;5.326;2023-11-22T08:27:29;102940.91;;;9.31;59.53
61554;BME280;47425;51.976;5.326;2023-11-22T08:29:56;102951.59;;;9.43;59.31
61554;BME280;47425;51.976;5.326;2023-11-22T08:32:22;102958.25;;;9.26;58.82
61554;BME280;47425;51.976;5.326;2023-11-22T08:34:54;102959.69;;;9.11;58.97
61554;BME280;47425;51.976;5.326;2023-11-22T08:37:20;102962.16;;;9.03;59.04
61554;BME280;47425;51.976;5.326;2023-11-22T08:39:46;102962.91;;;8.98;59.19
61554;BME280;47425;51.976;5.326;2023-11-22T08:42:15;102967.09;;;8.89;59.29
61554;BME280;47425;51.976;5.326;2023-11-22T08:44:41;102960.94;;;8.87;59.84
61554;BME280;47425;51.976;5.326;2023-11-22T08:47:09;102960.31;;;8.98;60.16
61554;BME280;47425;51.976;5.326;2023-11-22T08:49:35;102952.00;;;9.17;60.54
61554;BME280;47425;51.976;5.326;2023-11-22T08:52:03;102955.19;;;9.48;60.67
61554;BME280;47425;51.976;5.326;2023-11-22T08:54:32;102952.22;;;9.80;61.18
61554;BME280;47425;51.976;5.326;2023-11-22T08:56:58;102952.84;;;10.20;61.70
61554;BME280;47425;51.976;5.326;2023-11-22T08:59:28;102956.31;;;10.78;62.50
61554;BME280;47425;51.976;5.326;2023-11-22T09:01:54;102954.34;;;11.35;62.44
61554;BME280;47425;51.976;5.326;2023-11-22T09:04:21;102962.63;;;11.77;61.35
61554;BME280;47425;51.976;5.326;2023-11-22T09:06:49;102955.03;;;12.07;60.60
61554;BME280;47425;51.976;5.326;2023-11-22T09:09:15;102966.59;;;12.37;60.39
61554;BME280;47425;51.976;5.326;2023-11-22T09:11:43;102960.59;;;12.58;60.00
61554;BME280;47425;51.976;5.326;2023-11-22T09:14:10;102964.22;;;12.90;59.72
61554;BME280;47425;51.976;5.326;2023-11-22T09:16:39;102959.94;;;13.15;58.63
61554;BME280;47425;51.976;5.326;2023-11-22T09:19:05;102952.97;;;13.28;57.83
61554;BME280;47425;51.976;5.326;2023-11-22T09:21:32;102959.06;;;13.21;57.02
61554;BME280;47425;51.976;5.326;2023-11-22T09:24:00;102959.09;;;13.30;57.74
61554;BME280;47425;51.976;5.326;2023-11-22T09:26:27;102960.91;;;13.57;57.69
61554;BME280;47425;51.976;5.326;2023-11-22T09:28:54;102977.63;;;13.83;57.12
61554;BME280;47425;51.976;5.326;2023-11-22T09:31:21;102968.81;;;13.99;56.52
61554;BME280;47425;51.976;5.326;2023-11-22T09:33:48;102971.44;;;14.16;56.48
61554;BME280;47425;51.976;5.326;2023-11-22T09:36:15;102972.31;;;14.32;56.07
61554;BME280;47425;51.976;5.326;2023-11-22T09:38:43;102981.94;;;14.53;55.33
61554;BME280;47425;51.976;5.326;2023-11-22T09:41:09;102974.00;;;14.72;55.22
61554;BME280;47425;51.976;5.326;2023-11-22T09:43:36;102972.19;;;14.89;54.72
61554;BME280;47425;51.976;5.326;2023-11-22T09:46:05;102965.91;;;15.07;54.29
61554;BME280;47425;51.976;5.326;2023-11-22T09:48:34;102957.94;;;15.20;53.86
61554;BME280;47425;51.976;5.326;2023-11-22T09:51:03;102967.56;;;15.29;53.67
61554;BME280;47425;51.976;5.326;2023-11-22T09:53:31;102971.09;;;15.27;53.29
61554;BME280;47425;51.976;5.326;2023-11-22T09:55:57;102966.69;;;15.30;53.35
61554;BME280;47425;51.976;5.326;2023-11-22T09:58:24;102965.78;;;15.32;53.19
61554;BME280;47425;51.976;5.326;2023-11-22T10:00:53;102971.09;;;15.27;52.08
61554;BME280;47425;51.976;5.326;2023-11-22T10:03:20;102967.56;;;15.24;52.85
61554;BME280;47425;51.976;5.326;2023-11-22T10:05:47;102968.44;;;15.29;52.99
61554;BME280;47425;51.976;5.326;2023-11-22T10:08:15;102978.13;;;15.29;53.09
61554;BME280;47425;51.976;5.326;2023-11-22T10:10:42;102978.16;;;15.22;52.94
61554;BME280;47425;51.976;5.326;2023-11-22T10:13:12;102970.19;;;15.32;53.08
61554;BME280;47425;51.976;5.326;2023-11-22T10:15:39;102964.78;;;15.46;52.94
61554;BME280;47425;51.976;5.326;2023-11-22T10:18:05;102958.56;;;15.56;52.41
61554;BME280;47425;51.976;5.326;2023-11-22T10:20:35;102951.47;;;15.67;52.43
61554;BME280;47425;51.976;5.326;2023-11-22T10:23:02;102932.06;;;15.70;52.36
61554;BME280;47425;51.976;5.326;2023-11-22T10:25:31;102939.03;;;15.78;51.80
61554;BME280;47425;51.976;5.326;2023-11-22T10:27:57;102950.56;;;15.70;51.94
61554;BME280;47425;51.976;5.326;2023-11-22T10:30:24;102950.53;;;15.73;52.29
61554;BME280;47425;51.976;5.326;2023-11-22T10:32:53;102942.56;;;15.82;52.14
61554;BME280;47425;51.976;5.326;2023-11-22T10:35:20;102949.59;;;15.85;51.96
61554;BME280;47425;51.976;5.326;2023-11-22T10:37:49;102949.50;;;15.92;51.63
61554;BME280;47425;51.976;5.326;2023-11-22T10:40:15;102946.97;;;15.83;51.75
61554;BME280;47425;51.976;5.326;2023-11-22T10:42:43;102934.56;;;15.87;51.79
61554;BME280;47425;51.976;5.326;2023-11-22T10:45:11;102915.16;;;15.91;51.70
61554;BME280;47425;51.976;5.326;2023-11-22T10:47:38;102910.66;;;16.02;51.85
61554;BME280;47425;51.976;5.326;2023-11-22T10:50:09;102915.84;;;16.12;51.51
61554;BME280;47425;51.976;5.326;2023-11-22T10:52:37;102907.88;;;16.15;51.48
61554;BME280;47425;51.976;5.326;2023-11-22T10:55:07;102911.31;;;16.23;51.26
61554;BME280;47425;51.976;5.326;2023-11-22T10:57:36;102913.03;;;16.27;51.06
61554;BME280;47425;51.976;5.326;2023-11-22T11:00:05;102913.97;;;16.23;50.59
61554;BME280;47425;51.976;5.326;2023-11-22T11:02:36;102932.53;;;16.18;50.78
61554;BME280;47425;51.976;5.326;2023-11-22T11:05:06;102923.69;;;16.19;51.36
61554;BME280;47425;51.976;5.326;2023-11-22T11:07:42;102928.94;;;16.24;51.29
61554;BME280;47425;51.976;5.326;2023-11-22T11:10:11;102926.25;;;16.27;51.03
61554;BME280;47425;51.976;5.326;2023-11-22T11:12:39;102919.16;;;16.31;51.11
61554;BME280;47425;51.976;5.326;2023-11-22T11:15:08;102917.28;;;16.40;50.98
61554;BME280;47425;51.976;5.326;2023-11-22T11:17:34;102907.56;;;16.44;50.91
61554;BME280;47425;51.976;5.326;2023-11-22T11:20:03;102888.13;;;16.47;50.64
61554;BME280;47425;51.976;5.326;2023-11-22T11:22:31;102875.81;;;16.46;50.82
61554;BME280;47425;51.976;5.326;2023-11-22T11:25:00;102851.19;;;16.40;50.63
61554;BME280;47425;51.976;5.326;2023-11-22T11:27:29;102848.56;;;16.39;50.20
61554;BME280;47425;51.976;5.326;2023-11-22T11:29:54;102851.38;;;16.25;50.50
61554;BME280;47425;51.976;5.326;2023-11-22T11:32:31;102844.41;;;16.18;50.95
61554;BME280;47425;51.976;5.326;2023-11-22T11:34:58;102840.84;;;16.20;51.17
61554;BME280;47425;51.976;5.326;2023-11-22T11:37:28;102840.00;;;16.18;51.39
61554;BME280;47425;51.976;5.326;2023-11-22T11:39:55;102832.00;;;16.23;51.08
61554;BME280;47425;51.976;5.326;2023-11-22T11:42:23;102825.88;;;16.21;51.10
61554;BME280;47425;51.976;5.326;2023-11-22T11:44:51;102820.47;;;16.28;51.33
61554;BME280;47425;51.976;5.326;2023-11-22T11:47:17;102823.00;;;16.38;51.04
61554;BME280;47425;51.976;5.326;2023-11-22T11:49:45;102810.66;;;16.40;50.96
61554;BME280;47425;51.976;5.326;2023-11-22T11:52:13;102816.06;;;16.31;51.04
61554;BME280;47425;51.976;5.326;2023-11-22T11:54:39;102819.69;;;16.22;50.66
61554;BME280;47425;51.976;5.326;2023-11-22T11:57:06;102819.78;;;16.14;51.42
61554;BME280;47425;51.976;5.326;2023-11-22T11:59:33;102828.47;;;16.24;51.19
61554;BME280;47425;51.976;5.326;2023-11-22T12:02:00;102825.72;;;16.30;51.30
61554;BME280;47425;51.976;5.326;2023-11-22T12:04:27;102822.16;;;16.36;50.94
61554;BME280;47425;51.976;5.326;2023-11-22T12:06:55;102824.75;;;16.39;50.88
61554;BME280;47425;51.976;5.326;2023-11-22T12:09:22;102818.69;;;16.32;51.07
61554;BME280;47425;51.976;5.326;2023-11-22T12:11:50;102825.59;;;16.41;51.01
61554;BME280;47425;51.976;5.326;2023-11-22T12:14:18;102814.03;;;16.50;50.75
61554;BME280;47425;51.976;5.326;2023-11-22T12:16:46;102816.59;;;16.54;50.78
61554;BME280;47425;51.976;5.326;2023-11-22T12:19:20;102816.72;;;16.47;50.61
61554;BME280;47425;51.976;5.326;2023-11-22T12:21:47;102824.56;;;16.53;50.74
61554;BME280;47425;51.976;5.326;2023-11-22T12:24:15;102821.84;;;16.59;50.63
61554;BME280;47425;51.976;5.326;2023-11-22T12:26:44;102819.16;;;16.62;50.05
61554;BME280;47425;51.976;5.326;2023-11-22T12:29:11;102822.13;;;16.37;50.49
61554;BME280;47425;51.976;5.326;2023-11-22T12:31:46;102805.34;;;16.41;50.83
61554;BME280;47425;51.976;5.326;2023-11-22T12:34:17;102800.88;;;16.47;50.69
61554;BME280;47425;51.976;5.326;2023-11-22T12:36:45;102800.78;;;16.51;50.39
61554;BME280;47425;51.976;5.326;2023-11-22T12:39:12;102804.25;;;16.56;50.20
61554;BME280;47425;51.976;5.326;2023-11-22T12:41:44;102800.75;;;16.53;50.40
61554;BME280;47425;51.976;5.326;2023-11-22T12:44:12;102796.44;;;16.47;50.26
61554;BME280;47425;51.976;5.326;2023-11-22T12:46:45;102796.50;;;16.42;50.33
61554;BME280;47425;51.976;5.326;2023-11-22T12:49:11;102787.84;;;16.31;51.01
61554;BME280;47425;51.976;5.326;2023-11-22T12:51:38;102788.72;;;16.32;51.06
61554;BME280;47425;51.976;5.326;2023-11-22T12:54:05;102782.72;;;16.19;50.49
61554;BME280;47425;51.976;5.326;2023-11-22T12:56:33;102780.97;;;16.18;51.31
61554;BME280;47425;51.976;5.326;2023-11-22T12:59:00;102773.84;;;16.23;51.37